createdAt,value
2022-12-06T00:03:37.463Z,14.43
2022-12-06T00:08:40.906Z,13.93
2022-12-06T00:13:45.075Z,14.07
2022-12-06T00:18:48.697Z,14.07
2022-12-06T00:23:54.000Z,13.48
2022-12-06T00:28:59.921Z,13.77
2022-12-06T00:34:02.751Z,13.20
2022-12-06T00:39:07.707Z,13.85
2022-12-06T00:44:12.774Z,12.50
2022-12-06T00:49:15.603Z,12.98
2022-12-06T00:54:18.396Z,13.68
2022-12-06T00:59:22.594Z,12.27
2022-12-06T01:04:25.409Z,13.35
2022-12-06T01:09:30.877Z,11.80
2022-12-06T01:14:34.963Z,12.15
2022-12-06T01:19:37.728Z,12.77
2022-12-06T01:24:40.506Z,13.23
2022-12-06T01:29:44.679Z,11.88
2022-12-06T01:34:52.023Z,11.00
2022-12-06T01:39:54.808Z,10.82
2022-12-06T01:44:59.504Z,10.07
2022-12-06T01:50:05.611Z,8.68
2022-12-06T01:55:10.662Z,7.18
2022-12-06T02:00:15.831Z,5.97
2022-12-06T02:05:19.169Z,5.15
2022-12-06T02:10:21.984Z,4.43
2022-12-06T02:15:37.171Z,3.90
2022-12-06T02:20:45.849Z,3.83
2022-12-06T02:26:17.056Z,3.53
2022-12-06T02:31:28.205Z,3.15
2022-12-06T02:36:39.788Z,2.90
2022-12-06T02:41:49.875Z,2.15
2022-12-06T02:46:56.548Z,2.75
2022-12-06T02:51:59.821Z,2.35
2022-12-06T02:57:02.558Z,2.47
2022-12-06T03:02:12.030Z,2.17
2022-12-06T03:07:29.599Z,2.35
2022-12-06T03:12:36.970Z,2.63
2022-12-06T03:17:47.906Z,2.78
2022-12-06T03:22:57.183Z,2.97
2022-12-06T03:28:01.747Z,2.85
2022-12-06T03:33:06.690Z,3.10
2022-12-06T03:38:12.984Z,3.17
2022-12-06T03:43:16.284Z,2.92
2022-12-06T03:48:23.651Z,3.22
2022-12-06T03:53:26.504Z,3.10
2022-12-06T03:58:29.277Z,3.17
2022-12-06T04:03:33.452Z,3.20
2022-12-06T04:08:36.423Z,3.75
2022-12-06T04:13:39.364Z,3.67
2022-12-06T04:18:43.455Z,3.78
2022-12-06T04:23:48.105Z,3.50
2022-12-06T04:29:10.323Z,3.90
2022-12-06T04:34:32.337Z,3.63
2022-12-06T04:39:35.467Z,3.53
2022-12-06T04:44:38.243Z,3.40
2022-12-06T04:49:42.376Z,3.42
2022-12-06T04:54:45.415Z,3.30
2022-12-06T04:59:49.368Z,3.38
2022-12-06T05:04:53.514Z,3.20
2022-12-06T05:09:56.298Z,3.85
2022-12-06T05:14:59.100Z,3.70
2022-12-06T05:20:03.224Z,3.83
2022-12-06T05:25:06.545Z,3.28
2022-12-06T05:30:10.648Z,3.65
2022-12-06T05:35:14.899Z,3.40
2022-12-06T05:40:17.944Z,3.40
2022-12-06T05:45:20.710Z,3.15
2022-12-06T05:50:24.989Z,3.00
2022-12-06T05:55:28.231Z,2.97
2022-12-06T06:00:32.240Z,3.22
2022-12-06T06:05:37.484Z,2.70
2022-12-06T06:10:40.276Z,2.67
2022-12-06T06:15:43.011Z,2.38
2022-12-06T06:20:52.565Z,2.28
2022-12-06T06:26:02.776Z,2.50
2022-12-06T06:31:09.207Z,2.30
2022-12-06T06:36:44.092Z,2.80
2022-12-06T06:41:50.420Z,2.83
2022-12-06T06:46:53.713Z,3.70
2022-12-06T06:51:56.505Z,3.80
2022-12-06T06:57:02.297Z,4.38
2022-12-06T07:02:05.098Z,5.82
2022-12-06T07:07:08.125Z,5.57
2022-12-06T07:12:12.507Z,4.95
2022-12-06T07:17:15.381Z,5.15
2022-12-06T07:22:18.268Z,5.40
2022-12-06T07:27:23.581Z,5.60
2022-12-06T07:32:26.355Z,5.50
2022-12-06T07:37:34.635Z,4.80
2022-12-06T07:43:10.541Z,5.28
2022-12-06T07:48:13.993Z,5.85
2022-12-06T07:53:17.990Z,5.18
2022-12-06T07:58:22.091Z,6.03
2022-12-06T08:03:24.959Z,5.43
2022-12-06T08:08:29.110Z,5.45
2022-12-06T08:13:34.716Z,5.70
2022-12-06T08:18:38.093Z,5.68
2022-12-06T08:23:40.848Z,5.50
2022-12-06T08:28:45.586Z,5.22
2022-12-06T08:33:48.399Z,5.60
2022-12-06T08:38:51.781Z,6.18
2022-12-06T08:43:56.322Z,5.90
2022-12-06T08:49:01.524Z,6.63
2022-12-06T08:54:05.228Z,6.80
2022-12-06T08:59:09.889Z,6.95
2022-12-06T09:04:13.405Z,7.10
2022-12-06T09:09:18.440Z,7.07
2022-12-06T09:14:23.243Z,6.85
2022-12-06T09:19:26.034Z,7.55
2022-12-06T09:24:28.853Z,7.10
2022-12-06T09:29:37.382Z,7.15
2022-12-06T09:34:43.084Z,6.97
2022-12-06T09:39:50.442Z,6.38
2022-12-06T09:45:25.939Z,6.75
2022-12-06T09:50:39.009Z,6.93
2022-12-06T09:55:55.111Z,7.68
2022-12-06T10:01:09.326Z,7.90
2022-12-06T10:06:15.624Z,7.03
2022-12-06T10:11:33.583Z,7.43
2022-12-06T10:16:55.170Z,7.60
2022-12-06T10:22:13.386Z,7.20
2022-12-06T10:27:24.787Z,7.10
2022-12-06T10:32:43.386Z,7.55
2022-12-06T10:37:59.114Z,7.07
2022-12-06T10:43:10.328Z,8.00
2022-12-06T10:48:21.043Z,7.15
2022-12-06T10:53:29.492Z,7.15
2022-12-06T11:03:43.701Z,7.03
2022-12-06T11:08:52.170Z,6.75
2022-12-06T11:19:11.692Z,7.28
2022-12-06T11:24:20.880Z,7.15
2022-12-06T11:29:23.707Z,7.82
2022-12-06T11:34:32.509Z,7.35
2022-12-06T11:39:35.721Z,7.25
2022-12-06T11:44:46.409Z,7.53
2022-12-06T11:49:56.724Z,7.05
2022-12-06T11:55:03.935Z,8.63
2022-12-06T12:00:18.771Z,7.95
2022-12-06T12:05:25.490Z,8.38
2022-12-06T12:10:33.436Z,8.95
2022-12-06T12:15:37.569Z,8.45
2022-12-06T12:20:47.302Z,8.05
2022-12-06T12:26:01.367Z,9.10
2022-12-06T12:31:11.300Z,8.10
2022-12-06T12:36:26.421Z,7.82
2022-12-06T12:41:34.041Z,6.85
2022-12-06T12:46:37.916Z,7.27
2022-12-06T12:51:47.850Z,6.18
2022-12-06T12:56:51.853Z,4.88
2022-12-06T13:01:59.619Z,4.80
2022-12-06T13:07:06.979Z,4.72
2022-12-06T13:12:16.249Z,4.55
2022-12-06T13:17:20.013Z,4.78
2022-12-06T13:22:29.123Z,4.18
2022-12-06T13:27:36.139Z,3.67
2022-12-06T13:32:44.026Z,4.15
2022-12-06T13:37:54.400Z,3.88
2022-12-06T13:42:57.136Z,3.78
2022-12-06T13:47:59.964Z,4.22
2022-12-06T13:53:04.902Z,3.78
2022-12-06T13:58:50.701Z,3.88
2022-12-06T14:03:56.905Z,3.65
2022-12-06T14:09:01.900Z,4.35
2022-12-06T14:14:08.855Z,5.03
2022-12-06T14:19:16.911Z,5.70
2022-12-06T14:24:29.798Z,3.83
2022-12-06T14:29:33.140Z,4.20
2022-12-06T14:34:37.451Z,3.53
2022-12-06T14:39:41.614Z,3.55
2022-12-06T14:44:49.005Z,4.30
2022-12-06T14:50:11.004Z,4.03
2022-12-06T14:55:19.755Z,4.20
2022-12-06T15:00:27.808Z,4.53
2022-12-06T15:10:39.666Z,4.53
2022-12-06T15:15:44.038Z,4.72
2022-12-06T15:20:47.448Z,4.82
2022-12-06T15:25:51.729Z,4.78
2022-12-06T15:30:54.698Z,4.53
2022-12-06T15:35:58.269Z,4.28
2022-12-06T15:41:02.472Z,4.47
2022-12-06T15:46:05.974Z,4.45
2022-12-06T15:51:18.895Z,4.07
2022-12-06T15:56:26.634Z,4.03
2022-12-06T16:01:33.443Z,4.07
2022-12-06T16:06:36.332Z,3.90
2022-12-06T16:11:40.824Z,4.10
2022-12-06T16:16:43.963Z,5.53
2022-12-06T16:21:55.114Z,3.78
2022-12-06T16:26:59.372Z,3.83
2022-12-06T16:32:02.366Z,4.00
2022-12-06T16:37:07.356Z,3.70
2022-12-06T16:42:11.435Z,4.20
2022-12-06T16:47:15.238Z,3.80
2022-12-06T16:52:18.516Z,4.32
2022-12-06T16:57:22.687Z,3.63
2022-12-06T17:02:30.174Z,3.80
2022-12-06T17:07:33.449Z,3.83
2022-12-06T17:12:37.922Z,3.63
2022-12-06T17:17:41.095Z,3.55
2022-12-06T17:22:44.114Z,3.80
2022-12-06T17:27:49.521Z,3.72
2022-12-06T17:32:52.277Z,3.95
2022-12-06T17:37:55.203Z,4.30
2022-12-06T17:43:02.193Z,4.13
2022-12-06T17:48:07.386Z,4.60
2022-12-06T17:53:10.833Z,3.72
2022-12-06T17:58:15.335Z,3.83
2022-12-06T18:03:33.512Z,4.10
2022-12-06T18:08:36.499Z,4.25
2022-12-06T18:13:40.787Z,5.32
2022-12-06T18:18:52.034Z,4.53
2022-12-06T18:24:20.496Z,5.90
2022-12-06T18:29:22.810Z,6.28
2022-12-06T18:34:26.268Z,7.43
2022-12-06T18:39:34.211Z,6.88
2022-12-06T18:44:44.707Z,8.35
2022-12-06T18:50:28.273Z,7.80
2022-12-06T18:55:59.573Z,7.78
2022-12-06T19:01:13.830Z,7.45
2022-12-06T19:06:18.821Z,6.38
2022-12-06T19:11:32.964Z,9.32
2022-12-06T19:16:42.517Z,6.30
2022-12-06T19:21:52.174Z,6.85
2022-12-06T19:27:03.094Z,7.72
2022-12-06T19:32:16.299Z,9.48
2022-12-06T19:37:26.825Z,7.47
2022-12-06T19:43:17.850Z,8.45
2022-12-06T19:48:55.028Z,6.80
2022-12-06T20:00:09.655Z,7.45
2022-12-06T20:05:19.027Z,5.90
2022-12-06T20:10:50.793Z,5.32
2022-12-06T20:16:30.916Z,5.22
2022-12-06T20:21:55.868Z,7.20
2022-12-06T20:27:11.340Z,6.75
2022-12-06T20:32:30.406Z,6.10
2022-12-06T20:37:43.384Z,5.65
2022-12-06T20:43:09.523Z,6.43
2022-12-06T20:48:24.991Z,6.70
2022-12-06T20:53:32.290Z,5.80
2022-12-06T20:58:38.352Z,6.15
2022-12-06T21:03:42.026Z,5.82
2022-12-06T21:08:47.506Z,7.13
2022-12-06T21:13:50.853Z,6.53
2022-12-06T21:19:03.977Z,7.03
2022-12-06T21:24:12.307Z,6.30
2022-12-06T21:29:20.847Z,5.95
2022-12-06T21:34:29.390Z,6.45
2022-12-06T21:39:37.244Z,7.40
2022-12-06T21:44:44.886Z,6.47
2022-12-06T21:49:50.274Z,6.47
2022-12-06T21:54:54.430Z,6.65
2022-12-06T21:59:57.417Z,6.72
2022-12-06T22:05:00.296Z,7.47
2022-12-06T22:10:05.343Z,7.97
2022-12-06T22:15:09.165Z,8.85
2022-12-06T22:20:12.551Z,9.35
2022-12-06T22:25:47.333Z,8.40
2022-12-06T22:30:50.194Z,8.63
2022-12-06T22:35:53.072Z,9.20
2022-12-06T22:41:03.679Z,9.38
2022-12-06T22:46:10.118Z,10.25
2022-12-06T22:51:24.759Z,10.38
2022-12-06T22:56:34.099Z,10.43
2022-12-06T23:01:37.191Z,9.93
2022-12-06T23:06:40.281Z,10.32
2022-12-06T23:11:45.860Z,10.68
2022-12-06T23:16:51.553Z,10.32
2022-12-06T23:21:54.503Z,11.63
2022-12-06T23:27:00.284Z,11.20
2022-12-06T23:32:05.537Z,11.35
2022-12-06T23:37:10.590Z,11.77
2022-12-06T23:42:20.778Z,11.40
2022-12-06T23:47:23.920Z,11.70
2022-12-06T23:52:29.949Z,11.85
2022-12-06T23:57:36.023Z,12.70
